createdAt,value
2023-02-02T00:01:14.860Z,99838.94
2023-02-02T00:03:41.640Z,99839.59
2023-02-02T00:06:08.544Z,99823.97
2023-02-02T00:08:36.553Z,99842.13
2023-02-02T00:11:03.548Z,99794.53
2023-02-02T00:13:33.056Z,99810.38
2023-02-02T00:16:08.537Z,99827.69
2023-02-02T00:18:35.226Z,99798.53
2023-02-02T00:21:01.953Z,99814.09
2023-02-02T00:23:28.663Z,99801.03
2023-02-02T00:25:55.318Z,99794.00
2023-02-02T00:28:21.987Z,99833.41
2023-02-02T00:30:48.671Z,99813.31
2023-02-02T00:33:15.355Z,99816.47
2023-02-02T00:35:42.454Z,99775.03
2023-02-02T00:38:09.361Z,99810.13
2023-02-02T00:40:36.030Z,99814.72
2023-02-02T00:43:02.697Z,99791.97
2023-02-02T00:45:29.549Z,99806.06
2023-02-02T00:47:56.251Z,99794.69
2023-02-02T00:50:23.077Z,99815.94
2023-02-02T00:52:50.707Z,99792.38
2023-02-02T00:55:17.818Z,99807.28
2023-02-02T00:57:46.273Z,99810.13
2023-02-02T01:00:18.483Z,99840.56
2023-02-02T01:02:45.232Z,99808.06
2023-02-02T01:05:12.439Z,99809.91
2023-02-02T01:07:40.071Z,99805.97
2023-02-02T01:10:09.038Z,99858.44
2023-02-02T01:12:35.960Z,99835.75
2023-02-02T01:15:03.240Z,99822.59
2023-02-02T01:17:31.913Z,99826.16
2023-02-02T01:19:59.115Z,99790.50
2023-02-02T01:22:26.179Z,99842.28
2023-02-02T01:24:52.880Z,99857.22
2023-02-02T01:27:19.736Z,99787.25
2023-02-02T01:29:46.632Z,99800.44
2023-02-02T01:32:13.366Z,99784.56
2023-02-02T01:34:42.006Z,99835.31
2023-02-02T01:37:09.652Z,99842.44
2023-02-02T01:39:36.959Z,99866.16
2023-02-02T01:42:04.492Z,99829.34
2023-02-02T01:45:01.132Z,99830.94
2023-02-02T01:47:32.134Z,99830.94
2023-02-02T01:49:58.974Z,99846.00
2023-02-02T01:52:27.863Z,99821.03
2023-02-02T01:54:59.054Z,99838.66
2023-02-02T01:57:39.264Z,99872.66
2023-02-02T02:00:09.330Z,99832.41
2023-02-02T02:02:46.939Z,99814.00
2023-02-02T02:05:19.102Z,99821.19
2023-02-02T02:07:48.348Z,99913.31
2023-02-02T02:10:17.706Z,99856.34
2023-02-02T02:12:45.222Z,99861.69
2023-02-02T02:15:30.603Z,99908.06
2023-02-02T02:18:12.347Z,99854.72
2023-02-02T02:21:28.942Z,99866.16
2023-02-02T02:24:36.361Z,99878.38
2023-02-02T02:27:21.126Z,99869.50
2023-02-02T02:30:04.025Z,99878.44
2023-02-02T02:32:42.803Z,99874.91
2023-02-02T02:35:20.716Z,99885.19
2023-02-02T02:37:55.062Z,99888.44
2023-02-02T02:40:29.391Z,99886.59
2023-02-02T02:42:59.307Z,99890.78
2023-02-02T02:45:27.792Z,99925.59
2023-02-02T02:47:56.107Z,99898.59
2023-02-02T02:50:23.775Z,99917.06
2023-02-02T02:53:02.354Z,99920.63
2023-02-02T02:55:46.296Z,99912.81
2023-02-02T02:58:19.151Z,99903.06
2023-02-02T03:00:50.265Z,99923.25
2023-02-02T03:03:23.854Z,99922.16
2023-02-02T03:06:23.769Z,99924.81
2023-02-02T03:09:16.002Z,99932.84
2023-02-02T03:11:42.751Z,99932.84
2023-02-02T03:14:09.922Z,99942.66
2023-02-02T03:16:37.590Z,99925.88
2023-02-02T03:19:05.094Z,99949.69
2023-02-02T03:21:32.911Z,99953.31
2023-02-02T03:23:59.866Z,99982.56
2023-02-02T03:26:27.309Z,99963.25
2023-02-02T03:28:55.831Z,99984.56
2023-02-02T03:31:22.700Z,99990.53
2023-02-02T03:33:49.372Z,99985.44
2023-02-02T03:36:16.077Z,99979.16
2023-02-02T03:38:42.854Z,99984.41
2023-02-02T03:41:09.584Z,99992.25
2023-02-02T03:43:36.363Z,99998.19
2023-02-02T03:46:05.872Z,100002.44
2023-02-02T03:48:35.814Z,100002.19
2023-02-02T03:51:06.874Z,100011.69
2023-02-02T03:53:33.603Z,100017.69
2023-02-02T03:56:00.384Z,100026.56
2023-02-02T03:58:27.089Z,100020.09
2023-02-02T04:00:55.702Z,100016.38
2023-02-02T04:03:22.372Z,100024.19
2023-02-02T04:05:50.303Z,100018.66
2023-02-02T04:08:17.074Z,100037.00
2023-02-02T04:10:43.852Z,100049.00
2023-02-02T04:13:17.022Z,100077.06
2023-02-02T04:19:41.309Z,100070.91
2023-02-02T04:22:15.349Z,100077.06
2023-02-02T04:24:42.101Z,100060.03
2023-02-02T04:27:18.469Z,100080.91
2023-02-02T04:29:47.396Z,100069.19
2023-02-02T04:32:33.311Z,100100.75
2023-02-02T04:35:07.443Z,100086.75
2023-02-02T04:37:34.183Z,100096.63
2023-02-02T04:40:00.923Z,100088.50
2023-02-02T04:42:32.057Z,100102.88
2023-02-02T04:45:07.158Z,100098.69
2023-02-02T04:47:33.960Z,100097.69
2023-02-02T04:50:00.741Z,100113.41
2023-02-02T04:52:28.987Z,100125.56
2023-02-02T04:54:55.736Z,100129.09
2023-02-02T04:57:22.501Z,100136.00
2023-02-02T04:59:49.501Z,100124.69
2023-02-02T05:02:16.287Z,100135.28
2023-02-02T05:04:43.105Z,100156.25
2023-02-02T05:07:09.869Z,100144.03
2023-02-02T05:09:36.643Z,100147.84
2023-02-02T05:12:03.719Z,100158.09
2023-02-02T05:14:30.435Z,100160.22
2023-02-02T05:16:57.215Z,100167.16
2023-02-02T05:19:24.108Z,100171.59
2023-02-02T05:21:51.504Z,100183.75
2023-02-02T05:24:20.068Z,100181.13
2023-02-02T05:26:46.914Z,100183.81
2023-02-02T05:29:13.646Z,100191.78
2023-02-02T05:31:40.408Z,100195.38
2023-02-02T05:34:11.464Z,100209.53
2023-02-02T05:36:38.249Z,100200.72
2023-02-02T05:39:05.753Z,100221.75
2023-02-02T05:41:35.760Z,100220.22
2023-02-02T05:44:03.100Z,100221.09
2023-02-02T05:46:30.132Z,100225.47
2023-02-02T05:49:00.242Z,100222.00
2023-02-02T05:51:32.726Z,100234.28
2023-02-02T05:54:01.036Z,100237.91
2023-02-02T05:56:28.084Z,100231.78
2023-02-02T05:58:55.022Z,100240.72
2023-02-02T06:01:22.324Z,100239.75
2023-02-02T06:03:49.176Z,100261.81
2023-02-02T06:06:16.172Z,100255.75
2023-02-02T06:08:45.597Z,100250.47
2023-02-02T06:11:20.187Z,100275.94
2023-02-02T06:13:47.167Z,100259.44
2023-02-02T06:16:14.112Z,100265.59
2023-02-02T06:18:40.894Z,100269.97
2023-02-02T06:21:07.953Z,100283.91
2023-02-02T06:23:35.022Z,100279.63
2023-02-02T06:26:03.659Z,100288.44
2023-02-02T06:28:31.766Z,100288.25
2023-02-02T06:31:04.860Z,100298.69
2023-02-02T06:33:31.941Z,100304.72
2023-02-02T06:36:00.921Z,100303.94
2023-02-02T06:38:27.915Z,100293.38
2023-02-02T06:40:54.841Z,100315.13
2023-02-02T06:43:21.967Z,100308.09
2023-02-02T06:45:48.770Z,100313.22
2023-02-02T06:48:15.601Z,100314.09
2023-02-02T06:50:42.386Z,100329.84
2023-02-02T06:53:09.677Z,100334.97
2023-02-02T06:55:36.522Z,100336.56
2023-02-02T06:58:03.537Z,100341.97
2023-02-02T07:00:30.617Z,100351.44
2023-02-02T07:02:57.587Z,100360.09
2023-02-02T07:05:25.145Z,100361.09
2023-02-02T07:07:52.257Z,100358.47
2023-02-02T07:11:10.549Z,100364.50
2023-02-02T07:13:07.137Z,100378.38
2023-02-02T07:15:34.656Z,100381.88
2023-02-02T07:18:01.732Z,100382.66
2023-02-02T07:20:28.631Z,100392.22
2023-02-02T07:22:55.644Z,100395.63
2023-02-02T07:25:25.152Z,100402.59
2023-02-02T07:27:55.221Z,100399.91
2023-02-02T07:30:22.474Z,100399.97
2023-02-02T07:32:50.282Z,100414.75
2023-02-02T07:35:17.659Z,100423.56
2023-02-02T07:37:44.366Z,100418.19
2023-02-02T07:40:11.823Z,100424.44
2023-02-02T07:42:38.656Z,100416.47
2023-02-02T07:45:26.984Z,100449.75
2023-02-02T07:47:59.180Z,100424.25
2023-02-02T07:50:27.163Z,100433.91
2023-02-02T07:52:55.294Z,100429.50
2023-02-02T07:55:22.166Z,100430.31
2023-02-02T07:57:48.893Z,100429.38
2023-02-02T08:00:16.173Z,100427.69
2023-02-02T08:02:43.111Z,100441.88
2023-02-02T08:05:10.169Z,100434.97
2023-02-02T08:07:37.072Z,100445.59
2023-02-02T08:10:04.064Z,100452.63
2023-02-02T08:12:30.962Z,100460.44
2023-02-02T08:14:59.216Z,100456.28
2023-02-02T08:17:31.025Z,100465.94
2023-02-02T08:19:58.101Z,100459.63
2023-02-02T08:22:24.907Z,100466.44
2023-02-02T08:24:51.770Z,100473.38
2023-02-02T08:27:19.120Z,100476.47
2023-02-02T08:29:46.242Z,100477.06
2023-02-02T08:32:13.468Z,100489.38
2023-02-02T08:34:41.097Z,100479.56
2023-02-02T08:37:08.029Z,100499.53
2023-02-02T08:39:34.737Z,100496.16
2023-02-02T08:42:02.136Z,100500.53
2023-02-02T08:44:59.359Z,100510.50
2023-02-02T08:47:15.788Z,100515.69
2023-02-02T08:49:42.731Z,100521.31
2023-02-02T08:52:09.630Z,100517.78
2023-02-02T08:54:36.449Z,100524.66
2023-02-02T08:57:05.621Z,100527.25
2023-02-02T08:59:32.311Z,100527.25
2023-02-02T09:02:02.132Z,100535.09
2023-02-02T09:04:28.978Z,100526.38
2023-02-02T09:06:55.877Z,100525.19
2023-02-02T09:09:22.580Z,100531.28
2023-02-02T09:11:49.377Z,100534.28
2023-02-02T09:14:16.159Z,100548.19
2023-02-02T09:16:43.145Z,100544.50
2023-02-02T09:19:11.253Z,100541.69
2023-02-02T09:21:41.128Z,100543.22
2023-02-02T09:24:09.768Z,100544.97
2023-02-02T09:26:36.685Z,100554.59
2023-02-02T09:29:05.694Z,100566.78
2023-02-02T09:31:37.369Z,100563.34
2023-02-02T09:34:06.678Z,100558.88
2023-02-02T09:36:33.846Z,100566.84
2023-02-02T09:39:00.669Z,100580.00
2023-02-02T09:41:39.775Z,100582.44
2023-02-02T09:44:46.348Z,100563.16
2023-02-02T09:47:31.987Z,100566.88
2023-02-02T09:50:18.704Z,100568.13
2023-02-02T09:53:04.978Z,100582.84
2023-02-02T09:55:38.754Z,100575.72
2023-02-02T09:58:14.292Z,100575.88
2023-02-02T10:00:51.136Z,100585.59
2023-02-02T10:03:41.759Z,100591.75
2023-02-02T10:06:30.236Z,100602.13
2023-02-02T10:09:09.172Z,100635.00
2023-02-02T10:11:45.825Z,100659.22
2023-02-02T10:14:21.247Z,100618.88
2023-02-02T10:16:49.824Z,100618.09
2023-02-02T10:19:16.605Z,100635.50
2023-02-02T10:21:49.224Z,100622.38
2023-02-02T10:24:22.766Z,100628.28
2023-02-02T10:26:53.871Z,100628.13
2023-02-02T10:29:48.054Z,100631.34
2023-02-02T10:32:26.057Z,100624.00
2023-02-02T10:35:20.505Z,100632.25
2023-02-02T10:38:10.255Z,100633.97
2023-02-02T10:40:40.381Z,100641.56
2023-02-02T10:43:47.975Z,100638.66
2023-02-02T10:46:22.041Z,100642.69
2023-02-02T10:48:49.478Z,100637.19
2023-02-02T10:51:21.998Z,100636.13
2023-02-02T10:53:52.271Z,100633.28
2023-02-02T10:56:45.595Z,100635.59
2023-02-02T10:59:27.692Z,100642.41
2023-02-02T11:01:54.564Z,100647.53
2023-02-02T11:04:40.635Z,100646.44
2023-02-02T11:07:07.627Z,100656.72
2023-02-02T11:09:40.605Z,100671.38
2023-02-02T11:12:16.637Z,100686.59
2023-02-02T11:14:55.659Z,100684.66
2023-02-02T11:17:24.346Z,100692.16
2023-02-02T11:19:51.934Z,100697.22
2023-02-02T11:22:30.869Z,100692.94
2023-02-02T11:25:01.723Z,100704.78
2023-02-02T11:27:41.260Z,100721.88
2023-02-02T11:30:27.618Z,100720.56
2023-02-02T11:32:55.960Z,100743.44
2023-02-02T11:35:29.764Z,100737.59
2023-02-02T11:37:57.993Z,100748.44
2023-02-02T11:40:44.481Z,100732.16
2023-02-02T11:43:29.608Z,100720.22
2023-02-02T11:46:02.669Z,100732.50
2023-02-02T11:48:36.206Z,100727.19
2023-02-02T11:51:04.590Z,100737.22
2023-02-02T11:53:38.015Z,100730.63
2023-02-02T11:56:24.053Z,100733.47
2023-02-02T11:58:59.413Z,100735.06
2023-02-02T12:01:44.067Z,100742.53
2023-02-02T12:04:17.122Z,100738.38
2023-02-02T12:06:44.302Z,100742.84
2023-02-02T12:09:14.119Z,100751.59
2023-02-02T12:11:57.110Z,100740.09
2023-02-02T12:14:33.996Z,100748.66
2023-02-02T12:17:09.151Z,100746.34
2023-02-02T12:19:57.623Z,100753.44
2023-02-02T12:22:40.164Z,100752.34
2023-02-02T12:25:44.909Z,100751.78
2023-02-02T12:28:22.167Z,100758.47
2023-02-02T12:31:07.635Z,100757.81
2023-02-02T12:33:59.900Z,100762.63
2023-02-02T12:36:54.816Z,100761.34
2023-02-02T12:39:24.125Z,100766.31
2023-02-02T12:42:23.121Z,100767.63
2023-02-02T12:45:27.177Z,100757.34
2023-02-02T12:48:11.529Z,100758.63
2023-02-02T12:50:47.219Z,100768.66
2023-02-02T12:53:34.179Z,100776.69
2023-02-02T12:56:23.494Z,100772.47
2023-02-02T12:59:18.855Z,100777.06
2023-02-02T13:01:55.113Z,100804.38
2023-02-02T13:04:43.950Z,100788.19
2023-02-02T13:07:32.427Z,100804.16
2023-02-02T13:10:25.859Z,100806.41
2023-02-02T13:12:55.943Z,100808.78
2023-02-02T13:15:27.748Z,100817.13
2023-02-02T13:17:57.542Z,100819.66
2023-02-02T13:20:59.781Z,100819.25
2023-02-02T13:23:54.216Z,100822.56
2023-02-02T13:26:24.824Z,100836.28
2023-02-02T13:29:00.543Z,100846.34
2023-02-02T13:31:36.917Z,100839.91
2023-02-02T13:34:20.491Z,100854.75
2023-02-02T13:36:52.787Z,100858.63
2023-02-02T13:39:36.985Z,100871.22
2023-02-02T13:42:05.987Z,100871.88
2023-02-02T13:44:35.786Z,100887.66
2023-02-02T13:47:09.924Z,100886.53
2023-02-02T13:49:51.104Z,100888.50
2023-02-02T13:52:42.452Z,100896.44
2023-02-02T13:55:21.399Z,100899.78
2023-02-02T13:58:13.220Z,100913.78
2023-02-02T14:00:47.879Z,100914.97
2023-02-02T14:03:40.819Z,100928.72
2023-02-02T14:06:17.009Z,100925.97
2023-02-02T14:08:50.992Z,100934.81
2023-02-02T14:11:24.194Z,100957.56
2023-02-02T14:14:12.887Z,100949.09
2023-02-02T14:16:39.613Z,100953.34
2023-02-02T14:19:12.985Z,100961.25
2023-02-02T14:21:39.725Z,100966.00
2023-02-02T14:24:28.415Z,100972.75
2023-02-02T14:26:56.358Z,100970.88
2023-02-02T14:29:36.832Z,100973.28
2023-02-02T14:32:07.057Z,100987.47
2023-02-02T14:34:44.189Z,100999.56
2023-02-02T14:37:29.922Z,100997.97
2023-02-02T14:40:02.892Z,101013.16
2023-02-02T14:43:06.964Z,101027.13
2023-02-02T14:45:39.367Z,101042.94
2023-02-02T14:48:06.185Z,101036.34
2023-02-02T14:50:39.225Z,101038.44
2023-02-02T14:53:13.216Z,101043.97
2023-02-02T14:56:04.348Z,101057.59
2023-02-02T14:58:46.056Z,101063.06
2023-02-02T15:01:25.131Z,101069.03
2023-02-02T15:03:55.188Z,101082.06
2023-02-02T15:06:31.826Z,101083.84
2023-02-02T15:09:20.566Z,101079.44
2023-02-02T15:12:01.387Z,101090.19
2023-02-02T15:14:50.848Z,101093.88
2023-02-02T15:17:53.628Z,101102.53
2023-02-02T15:20:36.429Z,101107.97
2023-02-02T15:23:35.406Z,101105.41
2023-02-02T15:26:25.067Z,101118.06
2023-02-02T15:29:05.724Z,101120.78
2023-02-02T15:31:36.043Z,101126.88
2023-02-02T15:34:25.280Z,101130.66
2023-02-02T15:36:54.916Z,101137.59
2023-02-02T15:39:34.504Z,101141.44
2023-02-02T15:42:24.217Z,101141.88
2023-02-02T15:44:51.386Z,101146.31
2023-02-02T15:47:20.800Z,101151.56
2023-02-02T15:49:47.971Z,101158.00
2023-02-02T15:52:25.730Z,101161.47
2023-02-02T15:54:58.125Z,101166.84
2023-02-02T15:57:34.101Z,101171.63
2023-02-02T16:00:21.462Z,101185.50
2023-02-02T16:02:51.386Z,101183.94
2023-02-02T16:05:36.370Z,101194.53
2023-02-02T16:08:06.520Z,101202.59
2023-02-02T16:10:34.343Z,101208.97
2023-02-02T16:13:01.788Z,101205.50
2023-02-02T16:15:29.968Z,101216.16
2023-02-02T16:18:05.772Z,101226.75
2023-02-02T16:20:35.795Z,101229.41
2023-02-02T16:23:04.900Z,101228.81
2023-02-02T16:25:35.080Z,101236.97
2023-02-02T16:28:03.532Z,101241.47
2023-02-02T16:30:38.797Z,101238.19
2023-02-02T16:33:28.457Z,101248.72
2023-02-02T16:35:55.707Z,101257.47
2023-02-02T16:38:37.479Z,101257.38
2023-02-02T16:41:11.963Z,101267.66
2023-02-02T16:43:42.813Z,101271.31
2023-02-02T16:46:13.216Z,101284.63
2023-02-02T16:48:59.850Z,101282.66
2023-02-02T16:51:43.979Z,101293.03
2023-02-02T16:54:19.789Z,101294.78
2023-02-02T16:56:53.589Z,101293.97
2023-02-02T16:59:38.028Z,101296.88
2023-02-02T17:09:47.445Z,101309.75
2023-02-02T17:16:21.600Z,101324.59
2023-02-02T17:19:06.658Z,101329.00
2023-02-02T17:21:42.563Z,101324.72
2023-02-02T17:24:10.113Z,101325.47
2023-02-02T17:26:37.944Z,101331.72
2023-02-02T17:29:05.465Z,101337.28
2023-02-02T17:31:32.387Z,101340.81
2023-02-02T17:33:59.237Z,101345.34
2023-02-02T17:36:26.064Z,101351.47
2023-02-02T17:38:52.891Z,101355.72
2023-02-02T17:41:19.746Z,101354.84
2023-02-02T17:43:46.434Z,101353.81
2023-02-02T17:46:13.578Z,101357.31
2023-02-02T17:48:40.495Z,101366.00
2023-02-02T17:51:15.445Z,101367.84
2023-02-02T17:53:49.007Z,101371.44
2023-02-02T17:56:20.857Z,101372.44
2023-02-02T17:58:49.207Z,101368.78
2023-02-02T18:01:18.796Z,101374.91
2023-02-02T18:03:46.429Z,101377.69
2023-02-02T18:06:16.759Z,101373.69
2023-02-02T18:08:44.396Z,101373.72
2023-02-02T18:11:15.454Z,101370.38
2023-02-02T18:13:43.833Z,101368.69
2023-02-02T18:16:25.332Z,101375.00
2023-02-02T18:19:10.656Z,101367.06
2023-02-02T18:21:40.318Z,101367.88
2023-02-02T18:24:18.221Z,101368.53
2023-02-02T18:26:45.031Z,101368.56
2023-02-02T18:29:12.133Z,101368.47
2023-02-02T18:31:53.111Z,101371.94
2023-02-02T18:34:20.141Z,101369.44
2023-02-02T18:39:44.523Z,101367.81
2023-02-02T18:42:11.514Z,101371.31
2023-02-02T18:44:54.763Z,101366.97
2023-02-02T18:47:50.260Z,101369.50
2023-02-02T18:50:23.294Z,101373.03
2023-02-02T18:52:50.240Z,101365.19
2023-02-02T18:55:35.997Z,101367.81
2023-02-02T18:58:17.455Z,101362.63
2023-02-02T19:00:45.498Z,101373.63
2023-02-02T19:03:13.353Z,101378.78
2023-02-02T19:06:03.163Z,101375.03
2023-02-02T19:08:30.991Z,101369.78
2023-02-02T19:11:00.598Z,101371.59
2023-02-02T19:13:28.547Z,101376.00
2023-02-02T19:15:55.802Z,101378.88
2023-02-02T19:18:23.919Z,101374.56
2023-02-02T19:20:52.749Z,101384.19
2023-02-02T19:23:25.208Z,101389.44
2023-02-02T19:25:56.611Z,101386.88
2023-02-02T19:28:29.115Z,101395.66
2023-02-02T19:30:58.611Z,101392.16
2023-02-02T19:33:39.794Z,101391.44
2023-02-02T19:36:14.250Z,101395.97
2023-02-02T19:42:10.701Z,101397.78
2023-02-02T19:47:48.783Z,101386.25
2023-02-02T19:50:19.073Z,101390.56
2023-02-02T19:53:01.884Z,101389.78
2023-02-02T19:56:08.762Z,101392.34
2023-02-02T19:58:52.153Z,101404.69
2023-02-02T20:01:25.216Z,101396.88
2023-02-02T20:03:53.552Z,101392.53
2023-02-02T20:06:24.330Z,101386.34
2023-02-02T20:08:51.790Z,101395.97
2023-02-02T20:11:39.595Z,101394.97
2023-02-02T20:14:32.334Z,101400.25
2023-02-02T20:17:29.193Z,101393.00
2023-02-02T20:19:56.547Z,101387.63
2023-02-02T20:22:36.635Z,101387.69
2023-02-02T20:25:10.358Z,101388.47
2023-02-02T20:27:40.454Z,101393.72
2023-02-02T20:30:31.033Z,101404.94
2023-02-02T20:33:17.964Z,101396.91
2023-02-02T20:35:48.035Z,101399.50
2023-02-02T20:38:29.976Z,101395.91
2023-02-02T20:41:00.567Z,101405.44
2023-02-02T20:43:32.658Z,101410.56
2023-02-02T20:46:00.998Z,101407.13
2023-02-02T20:48:35.219Z,101401.94
2023-02-02T20:51:05.646Z,101406.50
2023-02-02T20:53:41.256Z,101397.00
2023-02-02T20:56:11.963Z,101393.78
2023-02-02T20:58:44.730Z,101392.88
2023-02-02T21:01:35.661Z,101376.44
2023-02-02T21:04:08.595Z,101381.59
2023-02-02T21:07:13.253Z,101380.56
2023-02-02T21:10:08.012Z,101374.72
2023-02-02T21:12:43.906Z,101371.16
2023-02-02T21:15:22.254Z,101369.47
2023-02-02T21:17:54.494Z,101368.63
2023-02-02T21:20:26.276Z,101367.72
2023-02-02T21:23:07.054Z,101369.50
2023-02-02T21:25:54.059Z,101362.66
2023-02-02T21:28:23.492Z,101359.22
2023-02-02T21:31:00.473Z,101353.97
2023-02-02T21:33:27.512Z,101363.53
2023-02-02T21:35:57.902Z,101360.09
2023-02-02T21:38:28.515Z,101356.63
2023-02-02T21:41:01.797Z,101348.84
2023-02-02T21:43:28.549Z,101350.69
2023-02-02T21:45:57.684Z,101351.56
2023-02-02T21:48:35.464Z,101348.06
2023-02-02T21:51:24.459Z,101359.41
2023-02-02T21:53:51.931Z,101359.41
2023-02-02T21:56:43.534Z,101354.16
2023-02-02T21:59:17.081Z,101348.09
2023-02-02T22:01:45.120Z,101344.53
2023-02-02T22:04:25.107Z,101341.84
2023-02-02T22:06:53.636Z,101338.38
2023-02-02T22:09:26.400Z,101341.88
2023-02-02T22:12:01.654Z,101329.59
2023-02-02T22:14:39.622Z,101334.03
2023-02-02T22:17:17.957Z,101324.34
2023-02-02T22:19:45.140Z,101315.66
2023-02-02T22:22:22.676Z,101320.06
2023-02-02T22:24:59.664Z,101321.88
2023-02-02T22:27:39.034Z,101328.06
2023-02-02T22:30:36.850Z,101322.84
2023-02-02T22:33:05.757Z,101316.66
2023-02-02T22:35:33.568Z,101317.50
2023-02-02T22:38:00.784Z,101318.34
2023-02-02T22:40:27.989Z,101333.25
2023-02-02T22:42:56.741Z,101326.19
2023-02-02T22:45:23.846Z,101327.00
2023-02-02T22:47:50.881Z,101333.19
2023-02-02T22:50:24.040Z,101329.63
2023-02-02T22:52:51.353Z,101328.69
2023-02-02T22:55:18.822Z,101334.00
2023-02-02T22:57:45.873Z,101332.09
2023-02-02T23:00:16.510Z,101333.72
2023-02-02T23:02:43.716Z,101332.75
2023-02-02T23:05:13.000Z,101326.59
2023-02-02T23:07:39.904Z,101328.19
2023-02-02T23:10:07.859Z,101323.75
2023-02-02T23:12:35.009Z,101324.53
2023-02-02T23:15:02.314Z,101319.38
2023-02-02T23:17:29.607Z,101325.50
2023-02-02T23:19:56.633Z,101322.69
2023-02-02T23:22:25.733Z,101313.09
2023-02-02T23:24:58.576Z,101307.66
2023-02-02T23:27:25.992Z,101304.13
2023-02-02T23:29:56.322Z,101302.34
2023-02-02T23:32:23.293Z,101304.13
2023-02-02T23:34:50.095Z,101296.03
2023-02-02T23:37:16.876Z,101296.97
2023-02-02T23:39:43.621Z,101283.00
2023-02-02T23:42:10.465Z,101284.75
2023-02-02T23:44:37.547Z,101271.72
2023-02-02T23:47:09.462Z,101274.31
2023-02-02T23:49:37.225Z,101261.22
2023-02-02T23:52:04.869Z,101259.38
2023-02-02T23:54:31.949Z,101262.00
2023-02-02T23:57:05.049Z,101257.59
2023-02-02T23:59:32.365Z,101254.84
